createdAt,value
2019-03-28T00:00:48.705Z,0.78
2019-03-28T00:06:43.712Z,0.87
2019-03-28T00:12:38.708Z,0.84
2019-03-28T00:18:33.743Z,0.92
2019-03-28T00:24:28.725Z,0.91
2019-03-28T00:30:23.739Z,0.9
2019-03-28T00:36:18.721Z,0.78
2019-03-28T00:42:13.768Z,0.85
2019-03-28T00:48:08.769Z,1.03
2019-03-28T00:59:59.090Z,0.98
2019-03-28T00:59:59.332Z,0.72
2019-03-28T01:05:53.751Z,0.92
2019-03-28T01:11:48.772Z,0.89
2019-03-28T01:17:43.784Z,0.76
2019-03-28T01:23:38.831Z,0.79
2019-03-28T01:29:33.772Z,0.94
2019-03-28T01:35:28.781Z,0.7
2019-03-28T01:41:23.777Z,0.94
2019-03-28T01:47:18.863Z,0.88
2019-03-28T01:53:13.801Z,0.93
2019-03-28T01:59:08.790Z,0.78
2019-03-28T02:05:04.113Z,1.11
2019-03-28T02:10:59.096Z,1.08
2019-03-28T02:16:53.799Z,0.92
2019-03-28T02:22:48.809Z,1.02
2019-03-28T02:28:43.803Z,0.95
2019-03-28T02:34:38.833Z,1.16
2019-03-28T02:40:33.797Z,1.3
2019-03-28T02:46:28.819Z,1.03
2019-03-28T02:52:23.845Z,1.07
2019-03-28T02:58:18.818Z,1.09
2019-03-28T03:04:13.837Z,1.04
2019-03-28T03:10:08.827Z,1.08
2019-03-28T03:16:04.157Z,1.11
2019-03-28T03:21:58.822Z,1.08
2019-03-28T03:27:58.047Z,1.36
2019-03-28T03:33:48.834Z,1.46
2019-03-28T03:39:43.858Z,1.58
2019-03-28T03:45:38.864Z,1.37
2019-03-28T03:51:33.855Z,1.24
2019-03-28T03:57:28.930Z,1.65
2019-03-28T04:03:23.836Z,1.29
2019-03-28T04:09:18.916Z,1.76
2019-03-28T04:15:13.905Z,1.45
2019-03-28T04:21:08.942Z,1.51
2019-03-28T04:27:04.213Z,1.61
2019-03-28T04:32:58.926Z,1.33
2019-03-28T04:38:53.930Z,1.77
2019-03-28T04:44:48.891Z,1.61
2019-03-28T04:50:43.903Z,1.33
2019-03-28T04:56:38.944Z,1.33
2019-03-28T05:02:33.933Z,1.56
2019-03-28T05:08:28.927Z,1.21
2019-03-28T05:14:23.929Z,1.33
2019-03-28T05:20:18.933Z,1.52
2019-03-28T05:26:13.959Z,1.42
2019-03-28T05:32:08.944Z,1.49
2019-03-28T05:38:04.280Z,1.27
2019-03-28T05:43:59.005Z,1.51
2019-03-28T05:49:53.948Z,2.14
2019-03-28T05:55:48.940Z,1.64
2019-03-28T06:01:43.958Z,1.7
2019-03-28T06:07:38.925Z,1.82
2019-03-28T06:13:33.972Z,1.67
2019-03-28T06:19:28.951Z,1.52
2019-03-28T06:25:23.956Z,1.54
2019-03-28T06:31:19.001Z,2.02
2019-03-28T06:37:13.968Z,1.68
2019-03-28T06:43:09.164Z,2.17
2019-03-28T06:49:03.969Z,1.87
2019-03-28T06:54:58.959Z,1.87
2019-03-28T07:00:53.984Z,1.6
2019-03-28T07:06:48.984Z,1.69
2019-03-28T07:12:44.345Z,1.57
2019-03-28T07:18:38.977Z,1.82
2019-03-28T07:24:33.999Z,2.4
2019-03-28T07:30:28.976Z,2.28
2019-03-28T07:36:23.981Z,1.97
2019-03-28T07:42:19.033Z,2.32
2019-03-28T07:48:13.997Z,2.28
2019-03-28T07:54:09.112Z,2.34
2019-03-28T08:00:05.247Z,1.8
2019-03-28T08:05:59.005Z,2.02
2019-03-28T08:11:54.014Z,1.61
2019-03-28T08:17:49.010Z,1.73
2019-03-28T08:23:44.062Z,1.76
2019-03-28T08:29:39.063Z,2.16
2019-03-28T08:35:34.054Z,2.08
2019-03-28T08:41:29.026Z,1.91
2019-03-28T08:47:24.078Z,1.67
2019-03-28T08:53:19.026Z,1.51
2019-03-28T08:59:14.060Z,2.08
2019-03-28T09:05:09.085Z,2.15
2019-03-28T09:11:04.091Z,2.62
2019-03-28T09:16:59.048Z,2.23
2019-03-28T09:22:54.101Z,2.23
2019-03-28T09:28:49.072Z,2.25
2019-03-28T09:34:44.057Z,2.2
2019-03-28T09:40:39.049Z,1.9
2019-03-28T09:46:34.117Z,1.97
2019-03-28T09:58:24.078Z,2.03
2019-03-28T09:58:24.112Z,2.08
2019-03-28T10:04:19.117Z,1.87
2019-03-28T10:10:14.103Z,2.49
2019-03-28T10:16:09.582Z,1.85
2019-03-28T10:22:04.119Z,2.26
2019-03-28T10:27:59.121Z,1.79
2019-03-28T10:33:54.105Z,2.24
2019-03-28T10:39:49.211Z,1.84
2019-03-28T10:45:44.155Z,2.25
2019-03-28T10:51:39.158Z,1.79
2019-03-28T10:57:34.113Z,1.55
2019-03-28T11:03:29.126Z,1.7
2019-03-28T11:09:24.162Z,2.64
2019-03-28T11:15:19.144Z,2.19
2019-03-28T11:21:14.147Z,2.05
2019-03-28T11:27:09.152Z,2.14
2019-03-28T11:33:06.391Z,2.02
2019-03-28T11:44:54.210Z,2.56
2019-03-28T11:44:54.264Z,2.56
2019-03-28T11:50:49.157Z,2.32
2019-03-28T11:56:44.215Z,2.28
2019-03-28T12:02:39.211Z,2.88
2019-03-28T12:08:34.197Z,2.2
2019-03-28T12:14:29.193Z,2.88
2019-03-28T12:20:24.217Z,2.77
2019-03-28T12:26:19.220Z,2.54
2019-03-28T12:38:09.269Z,3.27
2019-03-28T12:38:09.278Z,3.27
2019-03-28T12:44:04.512Z,2.19
2019-03-28T12:49:59.163Z,2.23
2019-03-28T12:55:54.229Z,2.78
2019-03-28T13:01:49.200Z,2.25
2019-03-28T13:07:44.257Z,3.04
2019-03-28T13:13:39.224Z,2.8
2019-03-28T13:19:34.237Z,2.79
2019-03-28T13:25:29.196Z,2.96
2019-03-28T13:31:24.268Z,8.73
2019-03-28T13:37:19.234Z,2.68
2019-03-28T13:43:14.260Z,2.9
2019-03-28T13:49:09.282Z,2.83
2019-03-28T13:55:04.534Z,3.1
2019-03-28T14:00:59.279Z,2.45
2019-03-28T14:06:54.224Z,2.76
2019-03-28T14:12:49.227Z,2.63
2019-03-28T14:18:44.310Z,2.73
2019-03-28T14:24:39.267Z,2.59
2019-03-28T14:30:34.275Z,2.11
2019-03-28T14:36:29.302Z,3
2019-03-28T14:42:24.310Z,2.09
2019-03-28T14:48:19.352Z,2.43
2019-03-28T14:54:14.303Z,2.46
2019-03-28T15:00:09.270Z,2.42
2019-03-28T15:06:04.283Z,2.43
2019-03-28T15:11:59.333Z,2.83
2019-03-28T15:17:54.321Z,3.2
2019-03-28T15:23:49.365Z,2.86
2019-03-28T15:29:44.320Z,2.41
2019-03-28T15:35:39.303Z,2.6
2019-03-28T15:41:34.287Z,2.56
2019-03-28T15:47:29.312Z,2.2
2019-03-28T15:53:24.329Z,2.5
2019-03-28T15:59:19.335Z,2.52
2019-03-28T16:05:14.333Z,2.49
2019-03-28T16:11:09.638Z,2.5
2019-03-28T16:17:04.649Z,2.75
2019-03-28T16:22:59.342Z,2.79
2019-03-28T16:28:56.415Z,2.43
2019-03-28T16:34:49.333Z,2.7
2019-03-28T16:40:44.348Z,2.27
2019-03-28T16:46:39.386Z,2.73
2019-03-28T16:52:34.348Z,2.34
2019-03-28T16:58:29.392Z,2.22
2019-03-28T17:04:24.450Z,2.44
2019-03-28T17:10:19.391Z,2.31
2019-03-28T17:16:14.365Z,2.11
2019-03-28T17:22:09.657Z,1.9
2019-03-28T17:28:04.730Z,2.37
2019-03-28T17:33:59.400Z,2.36
2019-03-28T17:39:54.453Z,2
2019-03-28T17:45:49.370Z,2.15
2019-03-28T17:51:44.366Z,2.35
2019-03-28T17:57:39.681Z,3.92
2019-03-28T18:03:34.417Z,1.89
2019-03-28T18:09:29.381Z,2.19
2019-03-28T18:15:24.441Z,1.77
2019-03-28T18:21:19.440Z,2.11
2019-03-28T18:27:14.384Z,1.95
2019-03-28T18:33:10.829Z,2.17
2019-03-28T18:39:04.672Z,2.57
2019-03-28T18:44:59.517Z,2.21
2019-03-28T18:50:54.477Z,2.23
2019-03-28T18:56:49.404Z,2.61
2019-03-28T19:02:44.452Z,2.37
2019-03-28T19:08:39.459Z,2.4
2019-03-28T19:14:34.477Z,2.76
2019-03-28T19:20:29.430Z,2.86
2019-03-28T19:26:24.502Z,2.25
2019-03-28T19:32:19.595Z,2.43
2019-03-28T19:38:14.485Z,2.3
2019-03-28T19:44:09.513Z,2.69
2019-03-28T19:50:04.533Z,2.18
2019-03-28T19:55:59.452Z,2.36
2019-03-28T20:01:54.451Z,1.9
2019-03-28T20:07:50.126Z,2.38
2019-03-28T20:13:44.497Z,2.13
2019-03-28T20:19:39.506Z,2.03
2019-03-28T20:25:34.536Z,2.13
2019-03-28T20:31:29.510Z,2.1
2019-03-28T20:37:24.517Z,1.87
2019-03-28T20:43:19.517Z,2.04
2019-03-28T20:49:14.672Z,1.76
2019-03-28T20:55:09.774Z,1.72
2019-03-28T21:01:04.870Z,1.75
2019-03-28T21:06:59.526Z,2.17
2019-03-28T21:12:54.506Z,2.29
2019-03-28T21:18:49.505Z,1.97
2019-03-28T21:24:44.522Z,1.71
2019-03-28T21:30:46.970Z,2.11
2019-03-28T21:36:34.578Z,1.7
2019-03-28T21:42:29.543Z,1.86
2019-03-28T21:48:24.542Z,1.9
2019-03-28T21:54:19.543Z,1.84
2019-03-28T22:00:14.800Z,2.04
2019-03-28T22:06:09.548Z,2
2019-03-28T22:12:04.560Z,1.73
2019-03-28T22:17:59.562Z,1.72
2019-03-28T22:23:54.604Z,1.82
2019-03-28T22:29:49.558Z,1.76
2019-03-28T22:35:44.570Z,2.08
2019-03-28T22:41:39.575Z,2.13
2019-03-28T22:47:35.690Z,1.75
2019-03-28T22:53:29.607Z,1.93
2019-03-28T22:59:24.548Z,1.7
2019-03-28T23:05:19.579Z,2.18
2019-03-28T23:11:14.594Z,1.88
2019-03-28T23:17:09.581Z,2.18
2019-03-28T23:23:04.588Z,1.97
2019-03-28T23:28:59.571Z,2
2019-03-28T23:34:54.609Z,1.71
2019-03-28T23:40:49.593Z,1.63
2019-03-28T23:46:44.701Z,1.71
2019-03-28T23:52:39.591Z,1.83
2019-03-28T23:58:34.610Z,1.79
